Time;durP1;ratioP1;P1;durP2;ratioP2;P2;SDS_P1;SDS_P2;PMS_P1;PMS_P2;Temp;Humidity;BMP_temperature;BMP_pressure;BME280_temperature;BME280_humidity;BME280_pressure;Samples;Min_cycle;Max_cycle;Signal;HPM_P1;HPM_P2
2023/08/31 00:01:33;;;;;;;;;10.00;10.00;;;;;;;;5082139;28;45246;-74
2023/08/31 00:03:59;;;;;;;;;11.67;11.00;;;;;;;;5082054;28;45311;-74
2023/08/31 00:06:24;;;;;;;;;12.33;12.33;;;;;;;;5081671;28;45337;-74
2023/08/31 00:08:50;;;;;;;;;11.00;11.00;;;;;;;;5072417;28;45216;-74
2023/08/31 00:11:15;;;;;;;;;12.00;12.00;;;;;;;;5043314;28;45206;-74
2023/08/31 00:13:41;;;;;;;;;12.67;12.00;;;;;;;;5061516;28;45361;-74
2023/08/31 00:16:09;;;;;;;;;13.67;12.33;;;;;;;;5053360;28;48364;-74
2023/08/31 00:18:35;;;;;;;;;14.00;12.67;;;;;;;;5081758;28;45296;-74
2023/08/31 00:21:00;;;;;;;;;14.00;14.00;;;;;;;;5062101;28;45324;-74
2023/08/31 00:23:26;;;;;;;;;12.00;12.00;;;;;;;;5081570;28;45446;-74
2023/08/31 00:25:52;;;;;;;;;14.00;12.00;;;;;;;;5063111;28;48252;-74
2023/08/31 00:28:18;;;;;;;;;10.33;10.33;;;;;;;;5063366;27;45311;-74
2023/08/31 00:30:45;;;;;;;;;13.00;13.00;;;;;;;;5102173;27;45376;-74
2023/08/31 00:33:13;;;;;;;;;12.33;12.33;;;;;;;;5101786;27;45568;-74
2023/08/31 00:35:42;;;;;;;;;8.00;8.00;;;;;;;;5101713;27;45287;-74
2023/08/31 00:38:07;;;;;;;;;13.33;13.00;;;;;;;;5101879;27;45206;-74
2023/08/31 00:40:37;;;;;;;;;14.33;14.33;;;;;;;;5101750;27;45215;-74
2023/08/31 00:43:03;;;;;;;;;12.33;11.00;;;;;;;;5083118;27;46137;-74
2023/08/31 00:45:28;;;;;;;;;11.00;10.67;;;;;;;;5101603;27;45902;-74
2023/08/31 00:47:54;;;;;;;;;11.00;10.67;;;;;;;;5083199;27;45319;-74
2023/08/31 00:50:19;;;;;;;;;12.00;12.00;;;;;;;;5083489;27;45501;-74
2023/08/31 00:52:44;;;;;;;;;13.00;12.00;;;;;;;;5101500;27;45338;-74
2023/08/31 00:55:10;;;;;;;;;13.00;11.67;;;;;;;;5082912;27;45981;-74
2023/08/31 00:57:35;;;;;;;;;11.33;10.67;;;;;;;;5101460;27;45260;-74
2023/08/31 01:00:00;;;;;;;;;9.33;9.33;;;;;;;;5101689;27;45306;-74
2023/08/31 01:02:40;;;;;;;;;14.67;12.33;;;;;;;;5098114;27;45505;-74
2023/08/31 01:05:13;;;;;;;;;11.33;11.33;;;;;;;;5080543;28;45228;-74
2023/08/31 01:07:48;;;;;;;;;11.67;11.67;;;;;;;;5080453;28;45232;-74
2023/08/31 01:10:13;;;;;;;;;12.67;11.67;;;;;;;;5061782;28;45347;-74
2023/08/31 01:12:49;;;;;;;;;10.00;10.00;;;;;;;;5080737;28;45232;-74
2023/08/31 01:15:15;;;;;;;;;12.33;11.00;;;;;;;;5080445;28;45284;-74
2023/08/31 01:17:44;;;;;;;;;9.67;9.00;;;;;;;;5080826;28;45237;-74
2023/08/31 01:20:11;;;;;;;;;12.33;11.33;;;;;;;;5080773;28;45396;-74
2023/08/31 01:22:43;;;;;;;;;10.33;10.00;;;;;;;;5080584;28;45318;-74
2023/08/31 01:25:09;;;;;;;;;10.00;10.00;;;;;;;;5062313;28;48304;-74
2023/08/31 01:27:34;;;;;;;;;7.33;7.33;;;;;;;;5080413;28;45315;-74
2023/08/31 01:29:59;;;;;;;;;9.67;8.00;;;;;;;;5095076;27;45376;-74
2023/08/31 01:32:25;;;;;;;;;8.00;8.00;;;;;;;;5082029;27;46346;-74
2023/08/31 01:34:54;;;;;;;;;8.00;8.00;;;;;;;;5100772;27;45374;-74
2023/08/31 01:37:23;;;;;;;;;8.33;8.00;;;;;;;;5100957;27;45212;-75
2023/08/31 01:39:52;;;;;;;;;8.33;7.33;;;;;;;;5101171;27;45451;-74
2023/08/31 01:42:18;;;;;;;;;10.67;10.67;;;;;;;;5100507;27;45228;-74
2023/08/31 01:44:44;;;;;;;;;9.33;8.00;;;;;;;;5100704;27;46303;-74
2023/08/31 01:47:10;;;;;;;;;7.33;7.33;;;;;;;;5082441;27;45236;-74
2023/08/31 01:49:39;;;;;;;;;9.00;8.67;;;;;;;;5082632;27;45879;-74
2023/08/31 01:52:04;;;;;;;;;7.67;7.67;;;;;;;;5100654;27;45402;-74
2023/08/31 01:54:29;;;;;;;;;10.33;9.33;;;;;;;;5100434;27;46172;-74
2023/08/31 01:56:55;;;;;;;;;9.00;8.00;;;;;;;;5100631;27;45302;-74
2023/08/31 01:59:20;;;;;;;;;11.00;10.00;;;;;;;;5082553;27;45350;-74
2023/08/31 02:01:45;;;;;;;;;9.67;9.67;;;;;;;;5100495;27;45326;-74
2023/08/31 02:04:10;;;;;;;;;12.00;12.00;;;;;;;;5100527;27;46357;-74
2023/08/31 02:06:35;;;;;;;;;10.00;9.00;;;;;;;;5100486;27;45223;-74
2023/08/31 02:09:00;;;;;;;;;12.00;10.67;;;;;;;;5100706;27;45554;-75
2023/08/31 02:11:26;;;;;;;;;9.00;9.00;;;;;;;;5081713;27;46098;-74
2023/08/31 02:13:51;;;;;;;;;10.00;9.00;;;;;;;;5092528;27;45414;-74
2023/08/31 02:16:16;;;;;;;;;12.00;10.67;;;;;;;;5061845;28;45994;-74
2023/08/31 02:18:41;;;;;;;;;9.00;9.00;;;;;;;;5061808;28;45190;-74
2023/08/31 02:21:07;;;;;;;;;10.00;9.67;;;;;;;;5079781;28;45233;-74
2023/08/31 02:23:32;;;;;;;;;10.00;9.33;;;;;;;;5079854;28;45221;-74
2023/08/31 02:25:57;;;;;;;;;10.33;10.33;;;;;;;;5079575;28;45307;-74
2023/08/31 02:28:22;;;;;;;;;10.00;10.00;;;;;;;;5062271;27;45301;-74
2023/08/31 02:30:57;;;;;;;;;11.00;10.67;;;;;;;;5100157;27;45503;-74
2023/08/31 02:33:22;;;;;;;;;9.33;9.00;;;;;;;;5100092;27;45289;-74
2023/08/31 02:35:47;;;;;;;;;9.00;9.00;;;;;;;;5100191;27;45357;-74
2023/08/31 02:38:12;;;;;;;;;10.00;7.00;;;;;;;;5099963;27;45237;-74
2023/08/31 02:40:37;;;;;;;;;9.33;9.33;;;;;;;;5099851;27;45259;-74
2023/08/31 02:43:03;;;;;;;;;9.67;9.33;;;;;;;;5099985;27;46390;-74
2023/08/31 02:45:28;;;;;;;;;10.00;10.00;;;;;;;;5103737;27;45297;-74
2023/08/31 02:47:54;;;;;;;;;9.00;9.00;;;;;;;;5103908;27;45165;-74
2023/08/31 02:50:19;;;;;;;;;11.00;11.00;;;;;;;;5085033;27;47134;-74
2023/08/31 02:52:45;;;;;;;;;9.00;9.00;;;;;;;;5103484;27;45343;-74
2023/08/31 02:55:10;;;;;;;;;10.00;10.00;;;;;;;;5103192;27;45153;-74
2023/08/31 02:57:35;;;;;;;;;12.00;8.00;;;;;;;;5103778;27;45281;-74
2023/08/31 03:00:01;;;;;;;;;8.67;8.00;;;;;;;;5103440;27;45260;-74
2023/08/31 03:02:26;;;;;;;;;11.00;10.00;;;;;;;;5103364;27;45267;-74
2023/08/31 03:04:51;;;;;;;;;9.33;8.33;;;;;;;;5103538;27;45387;-74
2023/08/31 03:07:16;;;;;;;;;8.00;8.00;;;;;;;;5085030;27;45343;-74
2023/08/31 03:09:42;;;;;;;;;7.33;5.33;;;;;;;;5084940;27;46096;-74
2023/08/31 03:12:07;;;;;;;;;9.00;9.00;;;;;;;;5084513;27;47936;-74
2023/08/31 03:14:32;;;;;;;;;8.00;8.00;;;;;;;;5103088;27;45414;-74
2023/08/31 03:16:57;;;;;;;;;10.00;9.00;;;;;;;;5103494;27;45331;-74
2023/08/31 03:19:23;;;;;;;;;5.33;4.67;;;;;;;;5103229;27;45266;-75
2023/08/31 03:21:48;;;;;;;;;9.67;7.67;;;;;;;;5103045;27;45361;-74
2023/08/31 03:24:13;;;;;;;;;8.67;6.00;;;;;;;;5103143;27;45337;-74
2023/08/31 03:26:38;;;;;;;;;9.67;9.00;;;;;;;;5084548;27;45496;-74
2023/08/31 03:29:03;;;;;;;;;8.00;8.00;;;;;;;;5096356;27;45452;-74
2023/08/31 03:31:29;;;;;;;;;10.00;9.00;;;;;;;;5082376;28;46632;-74
2023/08/31 03:33:54;;;;;;;;;9.33;8.00;;;;;;;;5082498;28;45852;-74
2023/08/31 03:36:20;;;;;;;;;8.00;8.00;;;;;;;;5064267;28;45864;-74
2023/08/31 03:38:45;;;;;;;;;8.00;8.00;;;;;;;;5082412;28;45366;-74
2023/08/31 03:41:10;;;;;;;;;8.00;8.00;;;;;;;;5082058;28;46371;-74
2023/08/31 03:43:35;;;;;;;;;10.00;8.67;;;;;;;;5082118;28;45361;-74
2023/08/31 03:46:01;;;;;;;;;9.00;7.67;;;;;;;;5082423;28;45298;-74
2023/08/31 03:48:26;;;;;;;;;9.67;9.00;;;;;;;;5082290;28;45419;-74
2023/08/31 03:50:52;;;;;;;;;10.33;9.00;;;;;;;;5063745;28;47425;-74
2023/08/31 03:53:18;;;;;;;;;7.00;6.00;;;;;;;;5082118;28;45220;-74
2023/08/31 03:55:43;;;;;;;;;7.33;7.33;;;;;;;;5081757;28;45223;-74
2023/08/31 03:58:08;;;;;;;;;8.00;8.00;;;;;;;;5063894;28;45969;-74
2023/08/31 04:00:33;;;;;;;;;8.67;7.33;;;;;;;;5082053;28;46184;-74
2023/08/31 04:02:58;;;;;;;;;7.00;7.00;;;;;;;;5082094;28;45208;-74
2023/08/31 04:05:24;;;;;;;;;8.00;8.00;;;;;;;;5082085;28;45208;-74
2023/08/31 04:07:49;;;;;;;;;8.33;7.33;;;;;;;;5063790;28;45934;-74
2023/08/31 04:10:14;;;;;;;;;8.00;8.00;;;;;;;;5081645;28;46204;-74
2023/08/31 04:12:39;;;;;;;;;6.00;6.00;;;;;;;;5081935;28;45153;-74
2023/08/31 04:15:04;;;;;;;;;8.00;7.00;;;;;;;;5082177;28;45721;-74
2023/08/31 04:17:30;;;;;;;;;9.33;8.00;;;;;;;;5081770;28;45495;-74
2023/08/31 04:19:55;;;;;;;;;5.67;5.67;;;;;;;;5081783;28;45413;-74
2023/08/31 04:22:20;;;;;;;;;9.33;9.33;;;;;;;;5063339;28;45256;-74
2023/08/31 04:24:46;;;;;;;;;4.00;4.00;;;;;;;;5082096;28;45166;-74
2023/08/31 04:27:11;;;;;;;;;7.67;6.67;;;;;;;;5081492;28;45245;-74
2023/08/31 04:29:37;;;;;;;;;7.00;7.00;;;;;;;;5092719;27;45271;-74
2023/08/31 04:32:02;;;;;;;;;6.33;5.00;;;;;;;;5102011;27;45367;-74
2023/08/31 04:34:27;;;;;;;;;6.00;4.33;;;;;;;;5102194;27;45269;-74
2023/08/31 04:36:52;;;;;;;;;6.67;6.67;;;;;;;;5101940;27;45341;-75
2023/08/31 04:39:18;;;;;;;;;9.00;8.00;;;;;;;;5101904;27;45317;-74
2023/08/31 04:41:43;;;;;;;;;6.00;6.00;;;;;;;;5101732;27;45409;-74
2023/08/31 04:44:08;;;;;;;;;6.67;6.67;;;;;;;;5083453;27;45294;-74
2023/08/31 04:46:33;;;;;;;;;8.00;7.00;;;;;;;;5101852;27;45322;-74
2023/08/31 04:48:59;;;;;;;;;8.00;7.67;;;;;;;;5101773;27;45326;-74
2023/08/31 04:51:32;;;;;;;;;9.67;8.33;;;;;;;;5101644;27;45400;-74
2023/08/31 04:53:57;;;;;;;;;7.00;6.00;;;;;;;;5101800;27;45431;-74
2023/08/31 04:56:22;;;;;;;;;6.00;6.00;;;;;;;;5101149;27;45371;-74
2023/08/31 04:58:48;;;;;;;;;6.00;6.00;;;;;;;;5101596;27;46328;-74
2023/08/31 05:01:13;;;;;;;;;9.67;7.33;;;;;;;;5101632;27;45398;-74
2023/08/31 05:03:38;;;;;;;;;10.00;9.67;;;;;;;;5083350;27;45396;-74
2023/08/31 05:06:04;;;;;;;;;7.00;6.67;;;;;;;;5100568;27;45307;-75
2023/08/31 05:08:29;;;;;;;;;5.67;5.67;;;;;;;;5083072;27;47214;-74
2023/08/31 05:10:55;;;;;;;;;5.67;5.67;;;;;;;;5100921;27;45325;-74
2023/08/31 05:13:20;;;;;;;;;7.67;6.33;;;;;;;;5101476;27;45307;-74
2023/08/31 05:15:45;;;;;;;;;8.00;7.00;;;;;;;;5101507;27;45317;-74
2023/08/31 05:18:10;;;;;;;;;8.33;7.67;;;;;;;;5082854;27;46972;-74
2023/08/31 05:20:35;;;;;;;;;7.00;7.00;;;;;;;;5101186;27;45294;-74
2023/08/31 05:23:00;;;;;;;;;7.67;6.67;;;;;;;;5083059;27;45539;-74
2023/08/31 05:25:26;;;;;;;;;7.67;7.67;;;;;;;;5089285;27;45411;-74
2023/08/31 05:27:51;;;;;;;;;9.00;7.00;;;;;;;;5080126;28;45338;-74
2023/08/31 05:30:16;;;;;;;;;6.33;6.33;;;;;;;;5079739;27;45310;-74
2023/08/31 05:32:41;;;;;;;;;8.67;7.67;;;;;;;;5070261;28;45218;-74
2023/08/31 05:35:07;;;;;;;;;8.33;6.00;;;;;;;;5064046;28;45506;-75
2023/08/31 05:37:33;;;;;;;;;7.00;7.00;;;;;;;;5066744;28;45213;-74
2023/08/31 05:39:58;;;;;;;;;8.33;8.33;;;;;;;;5069683;28;45222;-76
2023/08/31 05:42:24;;;;;;;;;8.00;7.67;;;;;;;;5063401;28;45189;-74
2023/08/31 05:44:49;;;;;;;;;6.00;6.00;;;;;;;;5060081;28;45501;-75
2023/08/31 05:47:14;;;;;;;;;9.33;9.00;;;;;;;;5041855;28;47137;-74
2023/08/31 05:49:39;;;;;;;;;4.00;4.00;;;;;;;;5060229;28;45476;-75
2023/08/31 05:52:04;;;;;;;;;2.00;2.00;;;;;;;;5060042;28;45297;-75
2023/08/31 05:54:30;;;;;;;;;5.33;5.33;;;;;;;;5059786;28;45478;-75
2023/08/31 05:56:55;;;;;;;;;8.00;7.00;;;;;;;;5059767;28;45331;-76
2023/08/31 05:59:21;;;;;;;;;6.00;6.00;;;;;;;;5060054;28;45281;-75
2023/08/31 06:01:46;;;;;;;;;8.33;7.33;;;;;;;;5069318;28;45269;-75
2023/08/31 06:04:11;;;;;;;;;9.33;7.33;;;;;;;;5080115;28;45316;-75
2023/08/31 06:06:36;;;;;;;;;7.00;7.00;;;;;;;;5079965;28;46358;-75
2023/08/31 06:09:02;;;;;;;;;7.67;7.33;;;;;;;;5080073;28;45445;-75
2023/08/31 06:11:27;;;;;;;;;8.00;6.67;;;;;;;;5079918;28;45382;-75
2023/08/31 06:13:52;;;;;;;;;9.00;8.33;;;;;;;;5074067;28;45521;-76
2023/08/31 06:16:17;;;;;;;;;5.33;5.33;;;;;;;;5058250;28;47575;-74
2023/08/31 06:18:43;;;;;;;;;8.67;8.33;;;;;;;;5061711;28;45332;-75
2023/08/31 06:21:08;;;;;;;;;7.33;7.33;;;;;;;;5079948;28;45345;-76
2023/08/31 06:23:33;;;;;;;;;8.00;7.00;;;;;;;;5079890;28;45342;-75
2023/08/31 06:25:59;;;;;;;;;9.33;8.33;;;;;;;;5079632;28;46275;-75
2023/08/31 06:28:25;;;;;;;;;8.00;8.00;;;;;;;;5062380;27;45795;-75
2023/08/31 06:30:50;;;;;;;;;8.00;8.00;;;;;;;;5088670;27;45356;-75
2023/08/31 06:33:17;;;;;;;;;6.00;6.00;;;;;;;;5068433;28;45342;-75
2023/08/31 06:35:42;;;;;;;;;6.00;6.00;;;;;;;;5067653;28;45303;-76
2023/08/31 06:38:07;;;;;;;;;6.33;6.00;;;;;;;;5065091;28;46340;-75
2023/08/31 06:40:33;;;;;;;;;6.33;6.33;;;;;;;;5041452;28;45229;-75
2023/08/31 06:42:58;;;;;;;;;6.67;6.67;;;;;;;;5059282;28;45212;-75
2023/08/31 06:45:24;;;;;;;;;7.00;7.00;;;;;;;;5041340;28;47297;-75
2023/08/31 06:47:49;;;;;;;;;8.00;7.00;;;;;;;;5059431;28;45270;-75
2023/08/31 06:50:14;;;;;;;;;8.33;8.00;;;;;;;;5059351;28;45333;-75
2023/08/31 06:52:41;;;;;;;;;9.33;8.00;;;;;;;;5059230;28;45336;-76
2023/08/31 06:55:06;;;;;;;;;9.00;8.33;;;;;;;;5058770;28;45355;-76
2023/08/31 06:57:31;;;;;;;;;9.00;7.67;;;;;;;;5059079;28;45328;-75
2023/08/31 06:59:56;;;;;;;;;7.00;7.00;;;;;;;;5059360;28;45723;-76
2023/08/31 07:02:24;;;;;;;;;7.00;7.00;;;;;;;;5059110;28;45339;-75
2023/08/31 07:04:49;;;;;;;;;7.67;7.67;;;;;;;;5041102;28;47131;-76
2023/08/31 07:07:14;;;;;;;;;7.00;6.00;;;;;;;;5058717;28;45292;-75
2023/08/31 07:09:42;;;;;;;;;8.33;8.33;;;;;;;;5058841;28;45288;-75
2023/08/31 07:12:07;;;;;;;;;8.00;8.00;;;;;;;;5058701;28;45288;-76
2023/08/31 07:14:32;;;;;;;;;8.00;8.00;;;;;;;;5058596;28;45219;-76
2023/08/31 07:16:57;;;;;;;;;8.67;7.67;;;;;;;;5059063;28;45279;-76
2023/08/31 07:19:23;;;;;;;;;7.67;7.67;;;;;;;;5058990;28;45243;-75
2023/08/31 07:21:48;;;;;;;;;9.00;8.67;;;;;;;;5065206;28;45201;-77
2023/08/31 07:24:13;;;;;;;;;7.00;7.00;;;;;;;;5079106;28;46422;-76
2023/08/31 07:26:38;;;;;;;;;10.67;10.67;;;;;;;;5078866;28;45258;-77
2023/08/31 07:29:04;;;;;;;;;9.33;8.33;;;;;;;;5085880;27;45422;-76
2023/08/31 07:31:30;;;;;;;;;9.67;9.67;;;;;;;;5084337;27;47070;-77
2023/08/31 07:33:55;;;;;;;;;7.00;7.00;;;;;;;;5084417;27;47172;-77
2023/08/31 07:36:20;;;;;;;;;13.00;10.00;;;;;;;;5084517;27;45708;-77
2023/08/31 07:38:45;;;;;;;;;14.67;14.67;;;;;;;;5103063;27;45293;-75
2023/08/31 07:41:10;;;;;;;;;18.67;18.33;;;;;;;;5102696;27;45397;-76
2023/08/31 07:43:35;;;;;;;;;16.00;15.00;;;;;;;;5082875;27;45537;-76
2023/08/31 07:46:01;;;;;;;;;13.00;13.00;;;;;;;;5081689;28;45474;-76
2023/08/31 07:48:26;;;;;;;;;9.33;9.00;;;;;;;;5082472;28;45139;-77
2023/08/31 07:50:52;;;;;;;;;10.00;10.00;;;;;;;;5081750;28;45404;-77
2023/08/31 07:53:18;;;;;;;;;9.00;8.33;;;;;;;;5059540;27;48188;-78
2023/08/31 07:55:50;;;;;;;;;9.00;9.00;;;;;;;;5050716;28;45341;-78
2023/08/31 07:58:15;;;;;;;;;10.00;10.00;;;;;;;;5045828;27;45273;-77
2023/08/31 08:00:41;;;;;;;;;8.33;7.00;;;;;;;;5043303;27;46118;-76
2023/08/31 08:03:06;;;;;;;;;10.00;9.00;;;;;;;;5063337;27;45319;-77
2023/08/31 08:05:31;;;;;;;;;9.67;9.00;;;;;;;;5068613;27;45471;-76
2023/08/31 08:07:56;;;;;;;;;8.33;7.33;;;;;;;;5062443;27;45243;-77
2023/08/31 08:10:21;;;;;;;;;9.00;8.00;;;;;;;;5061816;27;45323;-76
2023/08/31 08:12:46;;;;;;;;;9.00;8.67;;;;;;;;5061498;27;45564;-76
2023/08/31 08:15:12;;;;;;;;;7.67;6.67;;;;;;;;5080791;27;45460;-77
2023/08/31 08:17:37;;;;;;;;;8.33;8.00;;;;;;;;5063670;28;45460;-77
2023/08/31 08:20:03;;;;;;;;;8.00;7.00;;;;;;;;5081851;28;45515;-77
2023/08/31 08:22:28;;;;;;;;;6.00;6.00;;;;;;;;5063325;28;47163;-76
2023/08/31 08:24:54;;;;;;;;;7.33;6.00;;;;;;;;5066858;27;45342;-77
2023/08/31 08:27:20;;;;;;;;;8.67;6.00;;;;;;;;5043232;28;45429;-78
2023/08/31 08:29:45;;;;;;;;;7.67;6.00;;;;;;;;5086011;27;45322;-79
2023/08/31 08:32:10;;;;;;;;;10.67;9.00;;;;;;;;5083528;27;47292;-81
2023/08/31 08:34:36;;;;;;;;;8.33;7.00;;;;;;;;5102081;27;45333;-79
2023/08/31 08:37:01;;;;;;;;;9.00;7.00;;;;;;;;5102096;27;45359;-79
2023/08/31 08:39:26;;;;;;;;;7.00;6.00;;;;;;;;5102012;27;45326;-79
2023/08/31 08:41:54;;;;;;;;;9.00;7.67;;;;;;;;5100400;27;46545;-79
2023/08/31 08:44:21;;;;;;;;;5.00;4.00;;;;;;;;5101994;27;45292;-79
2023/08/31 08:46:48;;;;;;;;;7.33;6.00;;;;;;;;5101972;27;45326;-78
2023/08/31 08:49:14;;;;;;;;;7.00;7.00;;;;;;;;5101761;27;45557;-78
2023/08/31 08:51:40;;;;;;;;;11.00;6.33;;;;;;;;5101440;27;46520;-79
2023/08/31 08:54:06;;;;;;;;;6.67;6.00;;;;;;;;5101748;27;45302;-79
2023/08/31 08:56:31;;;;;;;;;6.33;6.00;;;;;;;;5101454;27;45319;-79
2023/08/31 08:58:56;;;;;;;;;7.00;6.00;;;;;;;;5101550;27;45551;-79
2023/08/31 09:01:22;;;;;;;;;7.67;7.67;;;;;;;;5102178;27;46293;-79
2023/08/31 09:03:48;;;;;;;;;8.00;6.00;;;;;;;;5083196;27;45291;-82
2023/08/31 09:06:14;;;;;;;;;7.33;5.67;;;;;;;;5083330;27;45313;-80
2023/08/31 09:08:40;;;;;;;;;5.67;5.67;;;;;;;;5101481;27;45414;-80
2023/08/31 09:11:06;;;;;;;;;6.00;6.00;;;;;;;;5101581;27;45334;-80
2023/08/31 09:13:33;;;;;;;;;9.67;9.33;;;;;;;;5101578;27;45460;-80
2023/08/31 09:16:01;;;;;;;;;7.00;7.00;;;;;;;;5083132;27;45374;-80
2023/08/31 09:18:27;;;;;;;;;6.00;6.00;;;;;;;;5082928;27;46444;-79
2023/08/31 09:20:53;;;;;;;;;7.00;7.00;;;;;;;;5101135;27;46057;-80
2023/08/31 09:23:19;;;;;;;;;7.00;4.33;;;;;;;;5101366;27;45281;-79
2023/08/31 09:25:45;;;;;;;;;5.33;5.33;;;;;;;;5101240;27;45363;-79
2023/08/31 09:28:14;;;;;;;;;8.33;7.00;;;;;;;;5082626;27;46525;-79
2023/08/31 09:30:40;;;;;;;;;6.00;5.00;;;;;;;;5080932;27;46678;-80
2023/08/31 09:33:06;;;;;;;;;6.00;6.00;;;;;;;;5062509;28;45407;-80
2023/08/31 09:35:32;;;;;;;;;8.00;7.00;;;;;;;;5062749;28;45274;-80
2023/08/31 09:37:57;;;;;;;;;6.00;6.00;;;;;;;;5060940;28;46270;-80
2023/08/31 09:40:22;;;;;;;;;6.33;6.33;;;;;;;;5079478;28;45432;-80
2023/08/31 09:42:49;;;;;;;;;5.00;3.33;;;;;;;;5080032;28;45280;-82
2023/08/31 09:45:16;;;;;;;;;3.67;3.67;;;;;;;;5067513;28;45405;-81
2023/08/31 09:47:42;;;;;;;;;7.00;6.67;;;;;;;;5057935;28;46332;-81
2023/08/31 09:50:08;;;;;;;;;6.00;4.33;;;;;;;;5062049;28;48001;-79
2023/08/31 09:52:33;;;;;;;;;5.00;3.67;;;;;;;;5080021;28;45483;-77
2023/08/31 09:55:03;;;;;;;;;5.00;5.00;;;;;;;;5080188;28;45279;-78
2023/08/31 09:57:28;;;;;;;;;5.00;5.00;;;;;;;;5080277;28;45574;-79
2023/08/31 09:59:54;;;;;;;;;4.00;4.00;;;;;;;;5080256;28;45297;-79
2023/08/31 10:02:19;;;;;;;;;4.00;4.00;;;;;;;;5080257;28;45311;-79
2023/08/31 10:04:44;;;;;;;;;4.33;3.33;;;;;;;;5060277;28;45338;-80
2023/08/31 10:07:11;;;;;;;;;6.00;6.00;;;;;;;;5069539;28;45426;-80
2023/08/31 10:09:36;;;;;;;;;4.00;4.00;;;;;;;;5080157;28;45542;-81
2023/08/31 10:12:04;;;;;;;;;4.00;4.00;;;;;;;;5079885;28;45379;-80
2023/08/31 10:14:29;;;;;;;;;8.00;6.00;;;;;;;;5062009;28;45466;-79
2023/08/31 10:16:55;;;;;;;;;6.67;6.67;;;;;;;;5079862;28;45309;-78
2023/08/31 10:19:21;;;;;;;;;6.00;5.00;;;;;;;;5061568;28;46823;-79
2023/08/31 10:21:46;;;;;;;;;5.00;5.00;;;;;;;;5079835;28;45396;-79
2023/08/31 10:24:11;;;;;;;;;6.33;5.67;;;;;;;;5079901;28;45310;-79
2023/08/31 10:26:36;;;;;;;;;4.00;4.00;;;;;;;;5061198;28;46151;-78
2023/08/31 10:29:03;;;;;;;;;9.00;6.00;;;;;;;;5086084;27;45450;-79
2023/08/31 10:31:29;;;;;;;;;5.00;4.00;;;;;;;;5081804;27;45271;-79
2023/08/31 10:34:05;;;;;;;;;5.00;5.00;;;;;;;;5081843;27;45372;-79
2023/08/31 10:36:36;;;;;;;;;5.33;5.33;;;;;;;;5099905;27;45489;-79
2023/08/31 10:39:05;;;;;;;;;9.00;5.67;;;;;;;;5100016;27;45338;-79
2023/08/31 10:41:34;;;;;;;;;5.00;3.00;;;;;;;;5099827;27;45334;-79
2023/08/31 10:43:59;;;;;;;;;7.33;7.00;;;;;;;;5099966;27;45223;-79
2023/08/31 10:46:43;;;;;;;;;7.00;7.00;;;;;;;;5099937;27;45287;-79
2023/08/31 10:49:11;;;;;;;;;7.33;6.00;;;;;;;;5081617;27;47056;-79
2023/08/31 10:51:37;;;;;;;;;8.00;5.33;;;;;;;;5099744;27;45302;-77
2023/08/31 10:54:15;;;;;;;;;5.00;5.00;;;;;;;;5100219;27;45311;-79
2023/08/31 10:57:00;;;;;;;;;5.00;5.00;;;;;;;;5099723;27;45318;-77
2023/08/31 10:59:26;;;;;;;;;7.67;7.00;;;;;;;;5084082;27;45459;-78
2023/08/31 11:01:54;;;;;;;;;6.00;4.67;;;;;;;;5079852;28;45363;-79
2023/08/31 11:04:20;;;;;;;;;6.33;6.00;;;;;;;;5080091;28;45337;-79
2023/08/31 11:06:45;;;;;;;;;8.33;8.33;;;;;;;;5076097;28;45545;-80
2023/08/31 11:09:20;;;;;;;;;5.33;5.33;;;;;;;;5071872;28;45415;-79
2023/08/31 11:11:46;;;;;;;;;5.67;5.67;;;;;;;;5071595;28;45256;-79
2023/08/31 11:14:11;;;;;;;;;7.33;7.33;;;;;;;;5055351;28;45291;-79
2023/08/31 11:16:39;;;;;;;;;5.33;4.33;;;;;;;;5048134;28;46223;-78
2023/08/31 11:19:05;;;;;;;;;4.00;4.00;;;;;;;;5063463;28;46122;-77
2023/08/31 11:21:31;;;;;;;;;7.00;7.00;;;;;;;;5062975;28;45325;-77
2023/08/31 11:23:58;;;;;;;;;9.00;8.00;;;;;;;;5063431;27;45281;-79
2023/08/31 11:26:23;;;;;;;;;6.00;6.00;;;;;;;;5051116;28;46639;-79
2023/08/31 11:28:48;;;;;;;;;8.00;6.67;;;;;;;;5085374;27;45338;-80
2023/08/31 11:31:22;;;;;;;;;5.67;5.67;;;;;;;;5070579;27;45422;-79
2023/08/31 11:33:47;;;;;;;;;7.00;7.00;;;;;;;;5080526;27;45459;-79
2023/08/31 11:36:17;;;;;;;;;8.67;7.00;;;;;;;;5070672;27;45416;-79
2023/08/31 11:38:42;;;;;;;;;5.67;5.67;;;;;;;;5096773;27;45425;-77
2023/08/31 11:41:07;;;;;;;;;7.33;5.67;;;;;;;;5047330;27;45246;-80
2023/08/31 11:43:32;;;;;;;;;6.33;6.33;;;;;;;;5085216;27;45404;-77
2023/08/31 11:45:59;;;;;;;;;3.00;3.00;;;;;;;;5061369;27;45340;-78
2023/08/31 11:48:24;;;;;;;;;6.00;5.67;;;;;;;;5085466;27;45432;-81
2023/08/31 11:50:52;;;;;;;;;5.67;5.00;;;;;;;;5070930;27;45191;-78
2023/08/31 11:53:17;;;;;;;;;5.00;4.33;;;;;;;;5069845;27;45443;-78
2023/08/31 11:55:50;;;;;;;;;8.00;7.67;;;;;;;;5043232;28;45889;-76
2023/08/31 11:58:15;;;;;;;;;6.00;6.00;;;;;;;;5081852;27;45281;-78
2023/08/31 12:00:42;;;;;;;;;8.00;8.00;;;;;;;;5066593;28;45884;-78
2023/08/31 12:03:08;;;;;;;;;7.33;4.67;;;;;;;;5070440;27;45442;-78
2023/08/31 12:05:46;;;;;;;;;6.00;6.00;;;;;;;;5061619;27;45310;-77
2023/08/31 12:08:12;;;;;;;;;5.33;4.67;;;;;;;;5061526;27;48128;-78
2023/08/31 12:10:41;;;;;;;;;5.67;5.00;;;;;;;;5067248;28;45254;-79
2023/08/31 12:13:09;;;;;;;;;4.00;4.00;;;;;;;;5069382;27;45373;-78
2023/08/31 12:15:35;;;;;;;;;5.00;5.00;;;;;;;;5061109;27;45410;-79
2023/08/31 12:18:06;;;;;;;;;4.67;4.67;;;;;;;;5068395;27;45850;-79
2023/08/31 12:20:32;;;;;;;;;5.00;5.00;;;;;;;;5070100;27;45337;-79
2023/08/31 12:22:57;;;;;;;;;5.00;5.00;;;;;;;;5067998;27;45421;-80
2023/08/31 12:25:23;;;;;;;;;3.00;3.00;;;;;;;;5062822;27;45293;-79
2023/08/31 12:27:49;;;;;;;;;3.00;3.00;;;;;;;;5066044;27;45375;-78
2023/08/31 12:30:15;;;;;;;;;5.00;4.00;;;;;;;;5080634;27;45283;-79
2023/08/31 12:32:40;;;;;;;;;2.67;2.67;;;;;;;;5064557;27;45650;-78
2023/08/31 12:35:06;;;;;;;;;3.00;3.00;;;;;;;;5065508;27;45619;-79
2023/08/31 12:37:31;;;;;;;;;1.67;1.67;;;;;;;;5062521;27;46162;-79
2023/08/31 12:39:56;;;;;;;;;3.00;3.00;;;;;;;;5059433;28;45354;-80
2023/08/31 12:42:21;;;;;;;;;4.00;4.00;;;;;;;;5061397;27;45446;-78
2023/08/31 12:44:47;;;;;;;;;5.33;5.00;;;;;;;;5050703;28;47000;-78
2023/08/31 12:47:12;;;;;;;;;3.00;3.00;;;;;;;;5043338;28;46925;-78
2023/08/31 12:49:37;;;;;;;;;4.67;4.00;;;;;;;;5066319;27;45755;-79
2023/08/31 12:52:02;;;;;;;;;5.00;4.33;;;;;;;;5076907;27;45193;-77
2023/08/31 12:54:28;;;;;;;;;4.00;4.00;;;;;;;;5071517;27;46289;-79
2023/08/31 12:56:53;;;;;;;;;4.00;3.00;;;;;;;;5060307;27;45438;-79
2023/08/31 12:59:18;;;;;;;;;4.00;4.00;;;;;;;;5076636;27;45509;-79
2023/08/31 13:01:43;;;;;;;;;2.67;2.67;;;;;;;;5059303;27;45378;-79
2023/08/31 13:04:08;;;;;;;;;3.00;3.00;;;;;;;;5050613;28;47240;-80
2023/08/31 13:06:33;;;;;;;;;3.00;3.00;;;;;;;;5069489;27;45429;-79
2023/08/31 13:08:59;;;;;;;;;3.33;3.33;;;;;;;;5062537;28;45986;-80
2023/08/31 13:11:24;;;;;;;;;4.00;4.00;;;;;;;;5046318;28;45353;-79
2023/08/31 13:13:52;;;;;;;;;3.25;3.25;;;;;;;;5068149;27;45498;-79
2023/08/31 13:16:18;;;;;;;;;5.33;4.33;;;;;;;;5060340;27;46134;-79
2023/08/31 13:18:43;;;;;;;;;4.00;4.00;;;;;;;;5070156;27;45385;-80
2023/08/31 13:21:08;;;;;;;;;4.33;4.33;;;;;;;;5058892;28;45702;-78
2023/08/31 13:23:33;;;;;;;;;3.00;3.00;;;;;;;;5068208;27;45654;-79
2023/08/31 13:25:58;;;;;;;;;2.75;0.00;;;;;;;;5059800;27;46130;-78
2023/08/31 13:28:24;;;;;;;;;3.33;3.33;;;;;;;;5066915;27;45335;-78
2023/08/31 13:30:49;;;;;;;;;3.50;3.50;;;;;;;;5070088;28;45481;-79
2023/08/31 13:33:15;;;;;;;;;5.00;4.33;;;;;;;;5064403;27;46463;-79
2023/08/31 13:35:40;;;;;;;;;5.75;4.75;;;;;;;;5066140;27;45295;-81
2023/08/31 13:38:05;;;;;;;;;4.00;3.25;;;;;;;;5063192;27;45447;-79
2023/08/31 13:40:33;;;;;;;;;5.00;5.00;;;;;;;;5059805;27;45474;-79
2023/08/31 13:43:05;;;;;;;;;7.00;7.00;;;;;;;;5065161;27;45300;-79
2023/08/31 13:45:31;;;;;;;;;6.33;5.33;;;;;;;;5065872;27;46064;-80
2023/08/31 13:47:57;;;;;;;;;6.67;4.67;;;;;;;;5062758;27;45454;-80
2023/08/31 13:50:23;;;;;;;;;6.00;4.33;;;;;;;;5059730;27;45292;-79
2023/08/31 13:52:48;;;;;;;;;5.00;4.00;;;;;;;;5062892;27;45568;-80
2023/08/31 13:55:13;;;;;;;;;5.00;4.33;;;;;;;;5067367;27;46730;-79
2023/08/31 13:57:41;;;;;;;;;4.33;4.33;;;;;;;;5043378;27;45479;-79
2023/08/31 14:00:09;;;;;;;;;7.00;7.00;;;;;;;;5060644;27;45709;-78
2023/08/31 14:02:34;;;;;;;;;5.00;4.00;;;;;;;;5058794;28;45634;-78
2023/08/31 14:04:59;;;;;;;;;8.67;8.00;;;;;;;;5058978;28;46230;-79
2023/08/31 14:07:24;;;;;;;;;5.67;5.67;;;;;;;;5058618;28;45549;-79
2023/08/31 14:09:50;;;;;;;;;8.00;8.00;;;;;;;;5058925;28;45330;-78
2023/08/31 14:12:15;;;;;;;;;6.00;6.00;;;;;;;;5057877;27;45413;-79
2023/08/31 14:14:42;;;;;;;;;6.00;6.00;;;;;;;;5061161;28;45352;-79
2023/08/31 14:17:07;;;;;;;;;7.67;6.33;;;;;;;;5059064;28;45276;-78
2023/08/31 14:19:33;;;;;;;;;9.33;9.33;;;;;;;;5059539;28;45200;-79
2023/08/31 14:21:58;;;;;;;;;6.33;5.67;;;;;;;;5059248;28;45286;-80
2023/08/31 14:24:23;;;;;;;;;9.00;8.00;;;;;;;;5059145;28;45434;-79
2023/08/31 14:26:48;;;;;;;;;7.33;6.67;;;;;;;;5059452;28;45273;-78
2023/08/31 14:29:14;;;;;;;;;7.00;7.00;;;;;;;;5075742;27;45395;-78
2023/08/31 14:31:39;;;;;;;;;7.00;7.00;;;;;;;;5086564;27;45327;-79